Time;durP1;ratioP1;P1;durP2;ratioP2;P2;SDS_P1;SDS_P2;PMS_P1;PMS_P2;Temp;Humidity;BMP_temperature;BMP_pressure;BME280_temperature;BME280_humidity;BME280_pressure;Samples;Min_cycle;Max_cycle;Signal;HPM_P1;HPM_P2
2023/06/18 00:00:12;;;;;;;;;15.75;15.25;;;;;26.60;34.69;100566.47;5020902;28;45365;-63
2023/06/18 00:02:37;;;;;;;;;16.00;14.25;;;;;26.55;35.39;100561.50;5020769;28;45480;-63
2023/06/18 00:05:03;;;;;;;;;20.75;18.75;;;;;26.53;35.40;100552.69;5020359;28;47030;-63
2023/06/18 00:07:28;;;;;;;;;23.00;21.00;;;;;26.50;34.89;100558.31;5020627;28;45254;-63
2023/06/18 00:09:54;;;;;;;;;20.25;19.50;;;;;26.48;34.86;100557.63;5020155;28;45443;-63
2023/06/18 00:12:19;;;;;;;;;21.50;20.00;;;;;26.46;35.21;100554.19;5020789;28;45257;-63
2023/06/18 00:14:45;;;;;;;;;24.50;21.00;;;;;26.46;34.65;100551.50;5020270;28;45464;-63
2023/06/18 00:17:11;;;;;;;;;14.75;14.75;;;;;26.43;35.33;100549.91;5020216;28;45341;-63
2023/06/18 00:19:36;;;;;;;;;21.25;16.75;;;;;26.43;34.77;100551.75;5020163;28;45360;-63
2023/06/18 00:22:02;;;;;;;;;20.50;19.25;;;;;26.40;34.99;100543.94;5020282;28;45300;-63
2023/06/18 00:24:27;;;;;;;;;18.50;17.25;;;;;26.39;35.29;100548.47;5034302;28;46539;-63
2023/06/18 00:26:53;;;;;;;;;19.50;18.50;;;;;26.37;34.87;100550.44;5020169;28;45325;-62
2023/06/18 00:29:18;;;;;;;;;19.75;19.50;;;;;26.36;34.83;100550.56;5020478;28;45368;-63
2023/06/18 00:31:43;;;;;;;;;17.25;17.00;;;;;26.34;35.27;100550.69;5020417;28;45313;-62
2023/06/18 00:34:09;;;;;;;;;25.00;22.00;;;;;26.33;34.86;100546.28;5020003;28;46938;-63
2023/06/18 00:36:38;;;;;;;;;20.75;19.75;;;;;26.31;34.96;100539.31;5020190;28;45308;-63
2023/06/18 00:39:04;;;;;;;;;18.75;17.75;;;;;26.33;35.04;100545.44;5018779;28;45342;-63
2023/06/18 00:41:32;;;;;;;;;22.00;20.50;;;;;26.31;35.02;100544.72;5019937;28;45490;-63
2023/06/18 00:43:58;;;;;;;;;19.00;17.50;;;;;26.31;35.28;100540.16;5020174;28;46900;-63
2023/06/18 00:46:26;;;;;;;;;22.50;20.00;;;;;26.31;35.46;100552.78;5019794;28;45315;-63
2023/06/18 00:48:53;;;;;;;;;18.75;18.75;;;;;26.29;34.84;100555.63;5035561;28;45352;-63
2023/06/18 00:51:21;;;;;;;;;21.50;19.00;;;;;26.30;34.96;100572.63;5019821;28;45426;-63
2023/06/18 00:53:46;;;;;;;;;21.25;20.75;;;;;26.26;35.04;100588.19;5019697;28;46098;-62
2023/06/18 00:56:12;;;;;;;;;21.50;21.25;;;;;26.25;35.80;100584.63;5019525;28;45535;-62
2023/06/18 00:58:38;;;;;;;;;23.00;22.50;;;;;26.21;35.24;100593.97;5020026;28;45546;-62
2023/06/18 01:01:10;;;;;;;;;20.00;19.00;;;;;26.18;35.81;100588.81;5019757;28;45408;-62
2023/06/18 01:03:36;;;;;;;;;24.50;23.00;;;;;26.15;35.42;100589.09;5019981;28;45530;-63
2023/06/18 01:06:03;;;;;;;;;24.50;20.00;;;;;26.13;35.86;100593.72;5019656;28;45432;-62
2023/06/18 01:08:33;;;;;;;;;25.00;21.75;;;;;26.11;36.02;100587.59;5019742;28;45471;-62
2023/06/18 01:11:06;;;;;;;;;23.50;22.50;;;;;26.08;36.20;100596.78;5018626;28;45344;-62
2023/06/18 01:13:36;;;;;;;;;22.25;21.00;;;;;26.06;36.05;100589.81;5019381;28;46381;-62
2023/06/18 01:16:06;;;;;;;;;24.50;21.75;;;;;26.05;35.70;100582.69;5019674;28;45502;-62
2023/06/18 01:18:36;;;;;;;;;23.50;22.25;;;;;26.01;36.29;100563.28;5034969;28;45194;-62
2023/06/18 01:21:09;;;;;;;;;22.00;22.00;;;;;25.98;36.63;100562.66;5019723;28;45343;-62
2023/06/18 01:23:49;;;;;;;;;27.50;24.25;;;;;25.95;36.50;100571.84;5019043;28;46133;-62
2023/06/18 01:26:21;;;;;;;;;21.25;20.50;;;;;25.91;36.63;100565.84;5019438;28;45451;-63
2023/06/18 01:28:58;;;;;;;;;21.75;21.75;;;;;25.89;36.81;100559.72;5019930;28;45429;-63
2023/06/18 01:31:24;;;;;;;;;25.00;20.75;;;;;25.88;36.99;100544.56;5019338;28;45450;-63
2023/06/18 01:33:53;;;;;;;;;22.75;22.75;;;;;25.85;36.78;100534.06;5019457;28;45265;-63
2023/06/18 01:36:47;;;;;;;;;29.50;25.50;;;;;25.83;37.47;100536.00;5035913;28;45202;-63
2023/06/18 01:39:21;;;;;;;;;24.50;24.50;;;;;25.79;37.59;100546.16;5022702;28;45348;-63
2023/06/18 01:41:52;;;;;;;;;26.25;25.00;;;;;25.76;37.62;100557.19;5022915;28;45330;-63
2023/06/18 01:44:21;;;;;;;;;24.25;23.25;;;;;25.75;37.69;100571.63;5037622;28;46123;-63
2023/06/18 01:46:52;;;;;;;;;23.75;22.50;;;;;25.74;37.41;100577.13;5022790;28;45239;-63
2023/06/18 01:49:20;;;;;;;;;24.50;21.50;;;;;25.70;38.12;100578.34;5037747;28;45360;-63
2023/06/18 01:51:46;;;;;;;;;25.00;23.00;;;;;25.68;38.16;100569.56;5022754;28;45613;-63
2023/06/18 01:54:13;;;;;;;;;23.75;23.75;;;;;25.65;38.22;100570.66;5022274;28;45297;-62
2023/06/18 01:56:39;;;;;;;;;25.25;24.00;;;;;25.62;38.43;100563.69;5022544;28;45527;-63
2023/06/18 01:59:04;;;;;;;;;24.75;24.50;;;;;25.59;38.03;100563.94;5022669;28;45223;-63
2023/06/18 02:01:31;;;;;;;;;28.50;26.25;;;;;25.58;38.06;100570.28;5022794;28;45624;-63
2023/06/18 02:03:56;;;;;;;;;22.25;21.00;;;;;25.57;38.23;100567.72;5022420;28;46239;-63
2023/06/18 02:06:22;;;;;;;;;23.75;23.50;;;;;25.55;38.52;100575.94;5022053;28;45408;-63
2023/06/18 02:08:47;;;;;;;;;24.50;24.50;;;;;25.55;38.34;100577.78;5022535;28;45746;-62
2023/06/18 02:11:13;;;;;;;;;26.75;25.50;;;;;25.53;38.58;100585.94;5020991;28;45302;-62
2023/06/18 02:13:38;;;;;;;;;27.75;26.50;;;;;25.51;38.84;100595.13;5037505;28;46725;-62
2023/06/18 02:16:03;;;;;;;;;27.75;25.25;;;;;25.47;38.71;100587.31;5022276;28;45292;-62
2023/06/18 02:18:29;;;;;;;;;26.00;25.25;;;;;25.44;39.01;100579.47;5022388;28;45333;-62
2023/06/18 02:20:54;;;;;;;;;25.00;25.00;;;;;25.42;39.25;100575.19;5022524;28;45274;-62
2023/06/18 02:23:19;;;;;;;;;28.75;25.50;;;;;25.41;39.38;100565.44;5022066;28;45348;-62
2023/06/18 02:25:45;;;;;;;;;26.75;23.75;;;;;25.38;39.27;100562.97;5022245;28;45237;-62
2023/06/18 02:28:11;;;;;;;;;24.50;23.25;;;;;25.37;39.05;100572.88;5037298;28;45253;-62
2023/06/18 02:30:37;;;;;;;;;26.00;25.00;;;;;25.35;39.20;100569.41;5022364;28;45381;-62
2023/06/18 02:33:06;;;;;;;;;26.00;26.00;;;;;25.34;39.66;100570.38;5037204;28;45321;-62
2023/06/18 02:35:32;;;;;;;;;20.00;19.75;;;;;25.31;39.45;100559.88;5022025;28;45444;-63
2023/06/18 02:37:58;;;;;;;;;28.75;26.25;;;;;25.30;39.97;100553.63;5034052;28;45396;-62
2023/06/18 02:40:23;;;;;;;;;26.50;26.25;;;;;25.30;39.53;100561.69;5012033;28;45406;-63
2023/06/18 02:42:48;;;;;;;;;27.25;26.00;;;;;25.26;39.99;100554.03;5022120;28;45381;-63
2023/06/18 02:45:22;;;;;;;;;28.75;27.50;;;;;25.28;39.75;100549.38;5020844;28;45837;-63
2023/06/18 02:47:49;;;;;;;;;27.25;25.50;;;;;25.26;40.08;100537.88;5021071;28;45340;-63
2023/06/18 02:50:15;;;;;;;;;27.75;25.00;;;;;25.25;39.79;100542.41;5021895;28;45410;-63
2023/06/18 02:52:42;;;;;;;;;29.75;25.75;;;;;25.24;39.98;100547.91;5021648;28;46166;-63
2023/06/18 02:55:08;;;;;;;;;28.00;26.75;;;;;25.25;40.21;100538.88;5021262;28;45310;-63
2023/06/18 02:57:38;;;;;;;;;26.25;24.50;;;;;25.22;40.12;100537.28;5021934;28;45225;-63
2023/06/18 03:00:13;;;;;;;;;30.75;27.50;;;;;25.21;40.32;100540.09;5021791;28;45312;-63
2023/06/18 03:02:41;;;;;;;;;24.75;24.75;;;;;25.15;40.27;100531.50;5021640;28;45410;-64
2023/06/18 03:05:06;;;;;;;;;27.00;25.50;;;;;25.20;40.77;100538.38;5021578;28;45260;-63
2023/06/18 03:07:32;;;;;;;;;23.25;22.25;;;;;25.20;40.80;100538.38;5021768;28;45526;-64
2023/06/18 03:09:57;;;;;;;;;25.75;22.00;;;;;25.19;40.57;100540.19;5019912;28;45463;-64
2023/06/18 03:12:24;;;;;;;;;27.25;27.00;;;;;25.17;40.83;100538.59;5021614;28;45281;-63
2023/06/18 03:14:49;;;;;;;;;28.50;28.50;;;;;25.15;40.84;100544.94;5021127;28;45249;-64
2023/06/18 03:17:15;;;;;;;;;24.25;23.50;;;;;25.15;41.12;100552.16;5021512;28;45352;-63
2023/06/18 03:19:40;;;;;;;;;26.25;24.00;;;;;25.14;41.03;100556.72;5021633;28;45296;-63
2023/06/18 03:22:06;;;;;;;;;27.25;24.75;;;;;25.14;40.99;100558.53;5021089;28;52483;-64
2023/06/18 03:24:32;;;;;;;;;27.75;25.50;;;;;25.14;41.22;100555.84;5021228;28;45380;-64
2023/06/18 03:26:58;;;;;;;;;25.75;25.25;;;;;25.13;41.27;100562.19;5021122;28;45560;-64
2023/06/18 03:29:28;;;;;;;;;30.25;26.75;;;;;25.11;41.13;100573.06;5021807;28;45329;-64
2023/06/18 03:31:54;;;;;;;;;25.25;25.25;;;;;25.11;41.37;100564.16;5021094;28;46197;-64
2023/06/18 03:34:23;;;;;;;;;29.00;28.25;;;;;25.08;41.50;100570.63;5020846;28;45329;-64
2023/06/18 03:36:49;;;;;;;;;26.25;25.25;;;;;25.07;41.71;100565.34;5021246;28;45368;-64
2023/06/18 03:39:15;;;;;;;;;23.00;22.00;;;;;25.07;41.69;100571.59;5020475;28;46159;-64
2023/06/18 03:41:41;;;;;;;;;29.50;27.00;;;;;25.06;41.89;100569.88;5020745;28;46224;-64
2023/06/18 03:44:07;;;;;;;;;23.25;22.75;;;;;25.04;41.94;100573.66;5036176;28;45260;-64
2023/06/18 03:46:33;;;;;;;;;31.00;27.00;;;;;25.03;41.73;100580.88;5021292;28;45209;-64
2023/06/18 03:48:58;;;;;;;;;33.00;30.00;;;;;25.02;41.93;100583.66;5020817;28;45435;-64
2023/06/18 03:51:25;;;;;;;;;28.50;28.50;;;;;25.00;41.96;100586.47;5021067;28;46789;-64
2023/06/18 03:53:50;;;;;;;;;29.75;28.50;;;;;24.97;41.84;100584.03;5036027;28;45347;-64
2023/06/18 03:56:17;;;;;;;;;25.00;24.50;;;;;24.97;42.41;100581.34;5020776;28;45309;-64
2023/06/18 03:58:43;;;;;;;;;31.75;26.50;;;;;24.96;42.05;100572.41;5020560;28;45265;-64
2023/06/18 04:01:09;;;;;;;;;29.00;26.50;;;;;24.95;42.03;100583.31;5019531;28;46094;-64
2023/06/18 04:03:34;;;;;;;;;32.25;30.00;;;;;24.92;42.29;100587.09;5019275;28;45720;-64
2023/06/18 04:05:59;;;;;;;;;29.75;28.00;;;;;24.91;42.24;100582.69;5020851;28;45477;-64
2023/06/18 04:08:25;;;;;;;;;31.00;27.00;;;;;24.90;42.60;100580.13;5020322;28;48369;-64
2023/06/18 04:10:50;;;;;;;;;28.75;26.75;;;;;24.89;42.39;100578.41;5020549;28;45238;-64
2023/06/18 04:13:17;;;;;;;;;28.00;25.00;;;;;24.87;42.48;100581.22;5020626;28;45212;-64
2023/06/18 04:15:43;;;;;;;;;30.50;29.75;;;;;24.86;42.84;100579.50;5020600;28;45220;-64
2023/06/18 04:18:09;;;;;;;;;34.25;30.25;;;;;24.85;42.67;100576.94;5020427;28;45356;-64
2023/06/18 04:20:35;;;;;;;;;32.50;29.50;;;;;24.84;42.91;100570.69;5020638;28;47055;-64
2023/06/18 04:23:00;;;;;;;;;26.00;24.50;;;;;24.82;42.75;100572.66;5020284;28;45349;-64
2023/06/18 04:25:25;;;;;;;;;29.50;28.75;;;;;24.80;43.08;100570.09;5020341;28;45318;-64
2023/06/18 04:27:51;;;;;;;;;25.25;25.25;;;;;24.80;43.23;100564.72;5020238;28;45319;-64
2023/06/18 04:30:17;;;;;;;;;34.50;31.50;;;;;24.81;43.16;100568.25;5035730;28;45983;-64
2023/06/18 04:32:42;;;;;;;;;28.75;26.00;;;;;24.78;43.33;100563.09;5020275;28;45380;-63
2023/06/18 04:35:08;;;;;;;;;29.00;27.75;;;;;24.79;43.22;100562.13;5018915;28;45320;-63
2023/06/18 04:37:34;;;;;;;;;29.00;25.75;;;;;24.77;43.23;100567.63;5019974;28;45320;-63
2023/06/18 04:39:59;;;;;;;;;28.25;25.00;;;;;24.78;43.32;100573.84;5018493;28;46003;-63
2023/06/18 04:42:24;;;;;;;;;27.25;24.75;;;;;24.76;42.89;100573.97;5020172;28;45333;-63
2023/06/18 04:44:50;;;;;;;;;28.75;27.25;;;;;24.76;43.03;100567.75;5020171;28;45490;-63
2023/06/18 04:47:15;;;;;;;;;30.00;28.00;;;;;24.76;43.12;100570.44;5020324;28;45179;-63
2023/06/18 04:49:42;;;;;;;;;28.25;28.00;;;;;24.75;43.35;100577.63;5019979;28;46235;-63
2023/06/18 04:52:07;;;;;;;;;28.25;26.50;;;;;24.76;43.20;100578.50;5020168;28;45288;-63
2023/06/18 04:54:33;;;;;;;;;31.75;28.25;;;;;24.76;43.41;100573.13;5019791;28;45182;-63
2023/06/18 04:56:59;;;;;;;;;29.25;29.25;;;;;24.77;43.62;100574.84;5019951;28;45382;-63
2023/06/18 04:59:24;;;;;;;;;25.50;23.25;;;;;24.76;43.42;100581.19;5018535;28;46959;-63
2023/06/18 05:01:51;;;;;;;;;30.25;28.00;;;;;24.76;44.05;100583.88;5019967;28;45408;-63
2023/06/18 05:04:16;;;;;;;;;36.25;32.50;;;;;24.75;43.89;100582.16;5018778;28;45281;-63
2023/06/18 05:06:41;;;;;;;;;31.75;28.75;;;;;24.76;43.77;100583.88;5019749;28;45308;-63
2023/06/18 05:09:07;;;;;;;;;28.00;28.00;;;;;24.78;43.76;100595.31;5018172;28;47269;-63
2023/06/18 05:11:32;;;;;;;;;27.00;25.50;;;;;24.77;43.67;100597.19;5021715;28;45402;-63
2023/06/18 05:13:58;;;;;;;;;26.50;25.00;;;;;24.78;43.72;100592.66;5022322;28;45309;-63
2023/06/18 05:16:24;;;;;;;;;27.75;26.75;;;;;24.78;43.81;100590.84;5023113;28;46008;-63
2023/06/18 05:18:49;;;;;;;;;26.50;26.50;;;;;24.78;43.70;100580.09;5023140;28;45644;-64
2023/06/18 05:21:15;;;;;;;;;29.00;27.50;;;;;24.78;44.31;100587.28;5023384;28;45410;-63
2023/06/18 05:23:41;;;;;;;;;25.50;23.50;;;;;24.78;43.89;100589.97;5023163;28;45495;-63
2023/06/18 05:26:06;;;;;;;;;23.25;22.00;;;;;24.78;43.88;100598.03;5023095;28;45133;-64
2023/06/18 05:28:31;;;;;;;;;26.00;24.50;;;;;24.78;44.11;100596.19;5021767;28;46416;-63
2023/06/18 05:30:57;;;;;;;;;26.00;25.75;;;;;24.76;44.20;100595.44;5023170;28;45388;-64
2023/06/18 05:33:22;;;;;;;;;32.50;30.00;;;;;24.80;43.80;100601.44;5023194;28;45340;-63
2023/06/18 05:35:48;;;;;;;;;25.00;23.75;;;;;24.80;44.40;100612.19;5022879;28;45476;-63
2023/06/18 05:38:13;;;;;;;;;24.50;23.25;;;;;24.80;44.31;100606.81;5022345;28;45320;-63
2023/06/18 05:40:39;;;;;;;;;21.00;20.50;;;;;24.79;44.40;100603.31;5022623;28;46682;-63
2023/06/18 05:43:04;;;;;;;;;20.75;19.00;;;;;24.76;44.01;100603.50;5022750;28;45182;-63
2023/06/18 05:45:29;;;;;;;;;25.00;25.00;;;;;24.82;44.04;100611.09;5023021;28;45308;-63
2023/06/18 05:47:55;;;;;;;;;23.75;22.50;;;;;24.83;44.10;100611.97;5021407;28;45455;-63
2023/06/18 05:50:20;;;;;;;;;27.25;25.75;;;;;24.81;44.08;100613.91;5022898;28;45344;-63
2023/06/18 05:52:45;;;;;;;;;21.25;21.25;;;;;24.83;43.92;100611.97;5022721;28;45427;-63
2023/06/18 05:55:11;;;;;;;;;21.25;20.50;;;;;24.82;44.09;100616.47;5020940;28;45385;-63
2023/06/18 05:57:36;;;;;;;;;20.50;18.50;;;;;24.79;43.98;100599.72;5022469;28;45318;-63
2023/06/18 06:00:02;;;;;;;;;24.00;21.25;;;;;24.83;44.54;100611.97;5021388;28;45321;-63
2023/06/18 06:02:28;;;;;;;;;22.75;20.75;;;;;24.85;44.31;100614.53;5022658;28;45443;-63
2023/06/18 06:04:53;;;;;;;;;25.75;21.50;;;;;24.84;44.44;100610.97;5021313;28;45443;-63
2023/06/18 06:07:18;;;;;;;;;19.25;17.75;;;;;24.83;44.28;100609.28;5022296;28;46286;-63
2023/06/18 06:09:44;;;;;;;;;24.50;19.25;;;;;24.82;44.37;100611.09;5022417;28;45265;-63
2023/06/18 06:12:10;;;;;;;;;19.75;17.25;;;;;24.84;44.41;100624.41;5022470;28;45276;-63
2023/06/18 06:14:36;;;;;;;;;22.50;18.75;;;;;24.83;44.51;100618.19;5021213;28;45393;-63
2023/06/18 06:17:01;;;;;;;;;23.25;18.25;;;;;24.85;44.56;100625.28;5020981;28;47663;-63
2023/06/18 06:19:26;;;;;;;;;21.50;19.50;;;;;24.82;43.95;100627.22;5022511;28;45236;-64
2023/06/18 06:21:52;;;;;;;;;19.50;19.50;;;;;24.84;44.31;100624.41;5021100;28;45274;-63
2023/06/18 06:24:17;;;;;;;;;20.00;19.25;;;;;24.85;44.24;100620.75;5021904;28;45455;-63
2023/06/18 06:26:43;;;;;;;;;18.00;16.50;;;;;24.82;44.13;100616.47;5021862;28;45287;-63
2023/06/18 06:29:08;;;;;;;;;22.25;21.25;;;;;24.83;44.42;100628.94;5022235;28;45269;-63
2023/06/18 06:31:33;;;;;;;;;21.25;19.75;;;;;24.84;44.44;100624.41;5022373;28;45229;-63
2023/06/18 06:33:59;;;;;;;;;20.25;19.75;;;;;24.83;44.07;100622.72;5022070;28;45526;-63
2023/06/18 06:36:25;;;;;;;;;20.50;20.00;;;;;24.85;44.27;100618.06;5037169;28;45453;-63
2023/06/18 06:38:50;;;;;;;;;22.25;20.50;;;;;24.85;44.36;100611.84;5021656;28;45319;-63
2023/06/18 06:41:16;;;;;;;;;17.50;17.25;;;;;24.84;44.51;100616.34;5023089;28;45419;-63
2023/06/18 06:43:41;;;;;;;;;22.00;22.00;;;;;24.84;43.73;100613.66;5022015;28;45514;-63
2023/06/18 06:46:08;;;;;;;;;17.25;17.25;;;;;24.84;44.14;100610.97;5020461;28;46132;-62
2023/06/18 06:48:33;;;;;;;;;23.00;20.25;;;;;24.83;44.06;100604.75;5037345;28;45348;-63
2023/06/18 06:50:58;;;;;;;;;25.00;23.25;;;;;24.82;43.95;100597.69;5021821;28;45308;-63
2023/06/18 06:53:24;;;;;;;;;21.25;18.00;;;;;24.82;44.34;100594.16;5021819;28;45588;-63
2023/06/18 06:55:49;;;;;;;;;21.75;19.00;;;;;24.85;44.37;100601.97;5021408;28;46815;-63
2023/06/18 06:58:14;;;;;;;;;21.75;20.50;;;;;24.83;44.09;100599.41;5021801;28;45320;-63
2023/06/18 07:00:40;;;;;;;;;21.00;17.75;;;;;24.84;44.52;100597.56;5022019;28;45229;-63
2023/06/18 07:03:05;;;;;;;;;17.25;15.75;;;;;24.86;44.23;100600.16;5021868;28;45341;-63
2023/06/18 07:05:30;;;;;;;;;19.50;16.50;;;;;24.86;44.21;100592.09;5021424;28;45766;-62
2023/06/18 07:07:56;;;;;;;;;17.25;17.25;;;;;24.87;44.21;100593.78;5021647;28;45225;-63
2023/06/18 07:10:21;;;;;;;;;15.25;15.25;;;;;24.88;44.27;100596.38;5021409;28;45284;-62
2023/06/18 07:12:47;;;;;;;;;17.00;15.25;;;;;24.86;44.08;100587.56;5021752;28;45405;-62
2023/06/18 07:15:12;;;;;;;;;19.75;19.25;;;;;24.89;44.28;100590.03;5021075;28;45182;-62
2023/06/18 07:17:37;;;;;;;;;19.25;18.00;;;;;24.92;44.26;100592.44;5036714;28;45245;-62
2023/06/18 07:20:03;;;;;;;;;19.25;18.25;;;;;24.95;44.24;100594.03;5036770;28;45253;-62
2023/06/18 07:22:29;;;;;;;;;16.75;15.75;;;;;24.98;44.21;100593.78;5021454;28;45583;-62
2023/06/18 07:24:56;;;;;;;;;18.25;18.25;;;;;24.99;44.40;100596.38;5020737;28;45203;-62
2023/06/18 07:27:22;;;;;;;;;18.50;18.50;;;;;25.02;44.09;100597.97;5021145;28;45349;-62
2023/06/18 07:29:47;;;;;;;;;16.75;15.75;;;;;25.03;43.97;100597.00;5021221;28;45320;-63
2023/06/18 07:32:13;;;;;;;;;18.00;17.50;;;;;25.07;44.40;100598.47;5021471;28;45311;-63
2023/06/18 07:34:38;;;;;;;;;15.50;15.00;;;;;25.09;44.16;100595.66;5020376;28;46246;-63
2023/06/18 07:37:03;;;;;;;;;16.75;15.00;;;;;25.12;43.98;100595.44;5020853;28;46305;-63
2023/06/18 07:39:29;;;;;;;;;14.75;13.50;;;;;25.13;44.17;100595.31;5021158;28;45300;-63
2023/06/18 07:41:54;;;;;;;;;18.25;18.25;;;;;25.17;44.16;100590.56;5020970;28;45515;-63
2023/06/18 07:44:19;;;;;;;;;18.00;16.00;;;;;25.19;44.28;100591.28;5020815;28;46505;-63
2023/06/18 07:46:45;;;;;;;;;18.00;18.00;;;;;25.22;43.63;100591.03;5020989;28;45340;-63
2023/06/18 07:49:10;;;;;;;;;16.00;14.75;;;;;25.26;44.24;100597.03;5019719;28;45457;-63
2023/06/18 07:51:36;;;;;;;;;14.25;14.25;;;;;25.28;43.76;100593.25;5021039;28;45205;-63
2023/06/18 07:54:01;;;;;;;;;18.75;16.75;;;;;25.31;44.44;100597.53;5019307;28;45765;-63
2023/06/18 07:56:26;;;;;;;;;16.75;16.00;;;;;25.38;44.12;100603.31;5020702;28;45337;-63
2023/06/18 07:58:53;;;;;;;;;18.25;17.00;;;;;25.41;44.10;100598.53;5020906;28;45439;-63
2023/06/18 08:01:18;;;;;;;;;15.75;15.75;;;;;25.46;44.26;100604.41;5020980;28;45338;-63
2023/06/18 08:03:44;;;;;;;;;15.75;14.25;;;;;25.49;43.91;100597.94;5020463;28;46194;-63
2023/06/18 08:06:09;;;;;;;;;20.00;17.25;;;;;25.55;43.66;100592.06;5020653;28;45198;-63
2023/06/18 08:08:35;;;;;;;;;16.00;15.00;;;;;25.60;44.11;100586.31;5020468;28;45212;-63
2023/06/18 08:11:00;;;;;;;;;15.50;15.50;;;;;25.64;43.88;100585.94;5020684;28;48895;-63
2023/06/18 08:13:25;;;;;;;;;20.50;18.00;;;;;25.68;43.79;100586.53;5018987;28;45698;-63
2023/06/18 08:15:51;;;;;;;;;16.00;16.00;;;;;25.76;44.04;100584.09;5020434;28;45268;-63
2023/06/18 08:18:16;;;;;;;;;17.25;16.25;;;;;25.82;43.83;100577.34;5035887;28;45468;-62
2023/06/18 08:20:41;;;;;;;;;16.25;16.25;;;;;25.87;43.55;100582.38;5020656;28;45275;-63
2023/06/18 08:23:07;;;;;;;;;17.25;14.75;;;;;25.92;44.04;100578.34;5020172;28;45330;-63
2023/06/18 08:25:32;;;;;;;;;18.75;17.00;;;;;25.95;44.05;100580.75;5020503;28;45364;-63
2023/06/18 08:27:58;;;;;;;;;19.00;16.75;;;;;26.03;43.52;100576.59;5020555;28;45410;-63
2023/06/18 08:30:24;;;;;;;;;17.75;15.00;;;;;26.07;43.64;100581.63;5020468;28;45324;-63
2023/06/18 08:32:49;;;;;;;;;14.75;14.00;;;;;26.09;43.54;100574.28;5020005;28;45483;-62
2023/06/18 08:35:15;;;;;;;;;20.00;20.00;;;;;26.13;43.71;100566.81;5020113;28;45359;-63
2023/06/18 08:37:40;;;;;;;;;18.75;16.00;;;;;26.19;43.84;100568.13;5020055;28;45265;-63
2023/06/18 08:40:07;;;;;;;;;13.50;13.50;;;;;26.22;43.80;100566.03;5018701;28;45521;-63
2023/06/18 08:42:33;;;;;;;;;17.50;16.25;;;;;26.26;43.55;100566.63;5019876;28;45495;-63
2023/06/18 08:44:59;;;;;;;;;16.25;14.25;;;;;26.31;43.65;100571.66;5019181;28;45258;-63
2023/06/18 08:47:27;;;;;;;;;19.00;17.75;;;;;26.32;43.06;100573.38;5019879;28;45170;-63
2023/06/18 08:49:57;;;;;;;;;20.50;18.75;;;;;26.35;42.96;100578.47;5035538;28;45665;-62
2023/06/18 08:52:25;;;;;;;;;18.25;18.25;;;;;26.37;43.01;100574.66;5019667;28;46293;-63
2023/06/18 08:54:55;;;;;;;;;22.00;21.00;;;;;26.37;43.09;100571.13;5019535;28;45455;-63
2023/06/18 08:57:29;;;;;;;;;19.50;19.25;;;;;26.43;43.39;100576.00;5020087;28;45210;-63
2023/06/18 08:59:57;;;;;;;;;19.00;18.50;;;;;26.42;43.51;100575.13;5018533;28;46015;-63
2023/06/18 09:02:24;;;;;;;;;14.75;14.75;;;;;26.47;43.25;100565.84;5034879;28;47184;-63
2023/06/18 09:04:50;;;;;;;;;16.00;15.25;;;;;26.48;42.92;100564.81;5018466;28;45283;-63
2023/06/18 09:07:15;;;;;;;;;17.75;15.00;;;;;26.51;43.30;100567.28;5019791;28;45276;-63
2023/06/18 09:09:41;;;;;;;;;15.25;13.50;;;;;26.49;43.21;100556.63;5019931;28;45312;-63
2023/06/18 09:12:07;;;;;;;;;17.25;16.25;;;;;26.52;43.21;100567.13;5019648;28;46111;-63
2023/06/18 09:14:32;;;;;;;;;15.00;14.00;;;;;26.49;43.17;100563.84;5018185;28;45357;-63
2023/06/18 09:16:58;;;;;;;;;16.50;15.25;;;;;26.53;43.33;100568.84;5019524;28;45313;-63
2023/06/18 09:19:24;;;;;;;;;15.25;15.25;;;;;26.54;42.44;100567.00;5019798;28;45313;-63
2023/06/18 09:21:51;;;;;;;;;19.50;19.00;;;;;26.54;42.43;100562.50;5019427;28;45421;-63
2023/06/18 09:24:20;;;;;;;;;18.75;18.50;;;;;26.56;43.02;100567.75;5019381;28;45251;-63
2023/06/18 09:26:47;;;;;;;;;21.00;18.00;;;;;26.57;42.67;100561.38;5019466;28;45222;-63
2023/06/18 09:29:12;;;;;;;;;20.75;20.75;;;;;26.56;42.61;100559.66;5034884;28;45473;-62
2023/06/18 09:31:46;;;;;;;;;18.25;15.25;;;;;26.58;42.59;100553.16;5019237;28;45440;-63
2023/06/18 09:34:17;;;;;;;;;19.50;18.50;;;;;26.58;42.48;100549.63;5019357;28;45461;-63
2023/06/18 09:36:45;;;;;;;;;18.50;18.50;;;;;26.58;42.56;100544.22;5031973;28;45542;-63
2023/06/18 09:39:14;;;;;;;;;15.25;13.75;;;;;26.61;42.35;100538.56;5016900;28;45392;-63
2023/06/18 09:41:40;;;;;;;;;15.50;14.75;;;;;26.63;42.55;100544.69;5017882;28;46918;-63
2023/06/18 09:44:07;;;;;;;;;17.50;17.50;;;;;26.65;42.79;100544.53;5019260;28;45322;-63
2023/06/18 09:46:33;;;;;;;;;20.50;19.00;;;;;26.69;42.81;100540.59;5018257;28;45403;-63
2023/06/18 09:49:00;;;;;;;;;20.50;18.25;;;;;26.72;43.07;100537.66;5034436;28;45488;-63
2023/06/18 09:51:25;;;;;;;;;22.25;20.00;;;;;26.74;42.66;100533.00;5034630;28;46167;-63
2023/06/18 09:53:59;;;;;;;;;19.00;19.00;;;;;26.80;42.67;100537.88;5018898;28;45384;-63
2023/06/18 09:56:25;;;;;;;;;18.00;18.00;;;;;26.84;42.54;100535.75;5019621;28;45234;-63
2023/06/18 09:58:51;;;;;;;;;22.00;21.25;;;;;26.90;42.91;100546.00;5022541;28;45245;-62
2023/06/18 10:01:19;;;;;;;;;20.50;16.75;;;;;26.96;42.23;100545.50;5022743;28;45516;-62
2023/06/18 10:03:46;;;;;;;;;20.00;18.75;;;;;27.02;42.04;100536.88;5022444;28;45355;-62
2023/06/18 10:06:17;;;;;;;;;19.00;19.00;;;;;27.10;42.39;100538.88;5022625;28;45229;-63
2023/06/18 10:08:46;;;;;;;;;22.50;19.00;;;;;27.16;42.75;100538.34;5037396;28;45391;-63
2023/06/18 10:11:15;;;;;;;;;20.50;18.50;;;;;27.24;42.20;100534.97;5022301;28;46391;-63
2023/06/18 10:13:57;;;;;;;;;22.00;21.50;;;;;27.30;41.78;100542.53;5022323;28;45391;-62
2023/06/18 10:16:27;;;;;;;;;20.50;17.75;;;;;27.36;42.37;100542.00;5022325;28;45258;-63
2023/06/18 10:18:58;;;;;;;;;20.25;18.25;;;;;27.40;42.19;100538.06;5022134;28;45463;-63
2023/06/18 10:21:24;;;;;;;;;21.00;19.25;;;;;27.44;42.10;100530.53;5022128;28;45320;-63
2023/06/18 10:23:56;;;;;;;;;23.25;20.75;;;;;27.49;42.29;100530.97;5020813;28;45345;-63
2023/06/18 10:26:23;;;;;;;;;21.00;18.50;;;;;27.53;42.29;100518.94;5022190;28;45234;-64
2023/06/18 10:28:50;;;;;;;;;20.25;18.25;;;;;27.60;41.81;100521.94;5022161;28;45446;-64
2023/06/18 10:31:19;;;;;;;;;21.25;20.75;;;;;27.66;41.99;100523.22;5021810;28;46209;-63
2023/06/18 10:33:46;;;;;;;;;18.50;18.50;;;;;27.71;42.03;100516.44;5021943;28;45352;-63
2023/06/18 10:36:12;;;;;;;;;22.00;20.25;;;;;27.78;42.00;100507.78;5021864;28;46427;-63
2023/06/18 10:38:38;;;;;;;;;17.25;14.75;;;;;27.84;41.96;100510.75;5021716;28;45537;-63
2023/06/18 10:41:12;;;;;;;;;17.00;16.25;;;;;27.94;41.71;100513.47;5020469;28;45514;-64
2023/06/18 10:43:41;;;;;;;;;22.50;22.50;;;;;28.04;41.59;100513.53;5021501;28;45195;-63
2023/06/18 10:46:11;;;;;;;;;21.00;20.00;;;;;28.12;41.59;100513.66;5018229;28;45436;-62
2023/06/18 10:48:37;;;;;;;;;18.25;18.25;;;;;28.17;41.66;100489.78;5013164;28;45468;-63
2023/06/18 10:51:13;;;;;;;;;16.50;16.25;;;;;28.34;41.48;100488.22;5021559;28;46069;-62
2023/06/18 10:53:39;;;;;;;;;21.75;20.00;;;;;28.50;41.53;100494.88;5020518;28;45274;-62
2023/06/18 10:56:05;;;;;;;;;22.25;21.25;;;;;28.64;41.48;100504.38;5036899;28;45312;-62
2023/06/18 10:58:37;;;;;;;;;18.50;18.50;;;;;28.78;41.40;100492.28;5020539;28;45556;-61
2023/06/18 11:01:02;;;;;;;;;23.25;19.75;;;;;28.94;41.20;100488.97;5021731;28;45924;-62
2023/06/18 11:03:38;;;;;;;;;18.75;18.75;;;;;29.12;41.24;100489.03;5021938;28;45270;-62
2023/06/18 11:06:07;;;;;;;;;20.50;20.50;;;;;29.30;41.42;100491.84;5021831;28;45313;-62